Time;durP1;ratioP1;P1;durP2;ratioP2;P2;SDS_P1;SDS_P2;PMS_P1;PMS_P2;Temp;Humidity;BMP_temperature;BMP_pressure;BME280_temperature;BME280_humidity;BME280_pressure;Samples;Min_cycle;Max_cycle;Signal;HPM_P1;HPM_P2
2022/12/26 00:01:22;;;;;;;0.32;0.32;;;;;;;10.91;100.00;98367.06;7402577;19;20010;-58
2022/12/26 00:03:49;;;;;;;0.10;0.00;;;;;;;10.78;100.00;98353.69;7402212;19;20340;-57
2022/12/26 00:06:19;;;;;;;0.90;0.52;;;;;;;11.45;100.00;98359.63;7398230;19;20015;-58
2022/12/26 00:08:46;;;;;;;0.10;0.00;;;;;;;12.33;100.00;98351.75;7397590;19;20525;-58
2022/12/26 00:11:14;;;;;;;0.10;0.10;;;;;;;11.23;100.00;98354.19;7398776;19;20458;-58
2022/12/26 00:13:41;;;;;;;4.28;0.73;;;;;;;11.90;100.00;98341.28;7403211;19;20033;-58
2022/12/26 00:16:14;;;;;;;0.25;0.20;;;;;;;12.19;100.00;98354.44;7398856;19;20015;-57
2022/12/26 00:18:41;;;;;;;0.20;0.20;;;;;;;12.25;100.00;98340.44;7396967;19;20022;-57
2022/12/26 00:21:09;;;;;;;0.05;0.00;;;;;;;12.41;100.00;98336.69;7398171;19;20031;-57
2022/12/26 00:23:36;;;;;;;0.10;0.00;;;;;;;12.48;100.00;98335.34;7402531;19;20006;-58
2022/12/26 00:26:12;;;;;;;0.30;0.30;;;;;;;12.59;100.00;98335.97;7399997;19;20101;-58
2022/12/26 00:28:38;;;;;;;0.55;0.55;;;;;;;12.07;100.00;98343.91;7396870;19;20458;-58
2022/12/26 00:31:26;;;;;;;0.10;0.10;;;;;;;12.72;100.00;98350.03;7401552;19;20027;-57
2022/12/26 00:33:53;;;;;;;0.10;0.10;;;;;;;12.02;100.00;98339.13;7402543;19;20372;-58
2022/12/26 00:36:22;;;;;;;0.10;0.00;;;;;;;11.47;100.00;98334.78;7396991;19;20011;-58
2022/12/26 00:38:49;;;;;;;0.10;0.10;;;;;;;12.23;100.00;98340.22;7398358;19;20031;-58
2022/12/26 00:41:16;;;;;;;0.10;0.00;;;;;;;11.98;100.00;98333.09;7397904;19;20496;-58
2022/12/26 00:43:43;;;;;;;2.13;0.47;;;;;;;12.37;100.00;98341.06;7401176;19;20011;-58
2022/12/26 00:46:09;;;;;;;1.02;0.28;;;;;;;12.32;100.00;98333.53;7398193;19;20011;-58
2022/12/26 00:48:35;;;;;;;0.20;0.10;;;;;;;11.96;100.00;98347.56;7397745;19;20011;-58
2022/12/26 00:51:02;;;;;;;0.10;0.00;;;;;;;12.08;100.00;98348.97;7395579;19;20014;-58
2022/12/26 00:53:28;;;;;;;1.17;0.35;;;;;;;11.48;100.00;98347.44;7401982;19;20017;-58
2022/12/26 00:55:55;;;;;;;0.10;0.03;;;;;;;11.75;100.00;98354.88;7398512;19;20010;-58
2022/12/26 00:58:22;;;;;;;0.20;0.15;;;;;;;11.50;100.00;98353.25;7397093;19;20103;-58
2022/12/26 01:00:49;;;;;;;0.10;0.00;;;;;;;11.58;100.00;98353.44;7399743;19;20462;-58
2022/12/26 01:03:15;;;;;;;0.20;0.20;;;;;;;12.50;100.00;98360.72;7400856;19;20014;-60
2022/12/26 01:05:44;;;;;;;0.10;0.00;;;;;;;12.39;100.00;98358.06;7396969;19;20322;-60
2022/12/26 01:08:11;;;;;;;0.10;0.10;;;;;;;12.47;100.00;98428.78;7396479;19;20362;-59
2022/12/26 01:10:40;;;;;;;0.30;0.20;;;;;;;12.64;100.00;98451.72;7395972;19;20014;-60
2022/12/26 01:13:07;;;;;;;0.00;0.00;;;;;;;12.13;100.00;98459.78;7400922;19;20015;-60
2022/12/26 01:15:33;;;;;;;0.30;0.00;;;;;;;11.54;100.00;98493.16;7395847;19;20514;-60
2022/12/26 01:18:00;;;;;;;0.10;0.00;;;;;;;11.41;100.00;98504.09;7397032;19;20339;-60
2022/12/26 01:20:27;;;;;;;0.25;0.25;;;;;;;10.64;100.00;98511.44;7399878;19;20018;-60
2022/12/26 01:22:54;;;;;;;0.10;0.10;;;;;;;10.43;100.00;98543.59;7399266;19;20485;-60
2022/12/26 01:25:21;;;;;;;0.20;0.20;;;;;;;10.30;100.00;98560.03;7398435;19;20010;-61
2022/12/26 01:27:47;;;;;;;0.10;0.03;;;;;;;10.13;100.00;98572.41;7396253;19;20458;-60
2022/12/26 01:30:13;;;;;;;0.10;0.00;;;;;;;9.86;100.00;98598.84;7395917;19;20014;-60
2022/12/26 01:32:39;;;;;;;5.32;0.52;;;;;;;9.48;100.00;98607.81;7398568;19;20018;-60
2022/12/26 01:35:06;;;;;;;0.10;0.00;;;;;;;9.50;100.00;98611.59;7396856;19;20018;-60
2022/12/26 01:37:32;;;;;;;0.10;0.10;;;;;;;9.39;100.00;98624.69;7395650;19;20014;-60
2022/12/26 01:39:58;;;;;;;0.10;0.10;;;;;;;9.10;100.00;98637.63;7396254;19;20013;-59
2022/12/26 01:42:25;;;;;;;0.10;0.10;;;;;;;9.66;100.00;98679.63;7397464;19;20014;-59
2022/12/26 01:45:23;;;;;;;0.10;0.10;;;;;;;9.49;100.00;98670.44;7400600;19;20014;-58
2022/12/26 01:48:02;;;;;;;0.10;0.00;;;;;;;9.42;100.00;98676.50;7395310;19;20474;-59
2022/12/26 01:50:32;;;;;;;0.10;0.10;;;;;;;9.39;100.00;98671.91;7396546;19;20018;-58
2022/12/26 01:53:08;;;;;;;0.10;0.00;;;;;;;9.22;100.00;98685.69;7398564;19;20081;-59
2022/12/26 01:55:38;;;;;;;0.10;0.10;;;;;;;8.80;100.00;98694.72;7395630;19;20010;-58
2022/12/26 01:58:11;;;;;;;0.20;0.20;;;;;;;8.72;100.00;98721.38;7398151;19;20496;-57
2022/12/26 02:00:38;;;;;;;0.10;0.10;;;;;;;7.94;100.00;98708.66;7396089;19;20011;-57
2022/12/26 02:05:54;;;;;;;0.10;0.10;;;;;;;8.19;100.00;98729.34;7394781;19;20045;-57
2022/12/26 02:08:25;;;;;;;0.10;0.03;;;;;;;7.84;100.00;98731.44;7393710;19;20490;-57
2022/12/26 02:11:15;;;;;;;0.10;0.10;;;;;;;7.62;100.00;98735.44;7394451;19;20018;-57
2022/12/26 02:13:41;;;;;;;0.10;0.10;;;;;;;8.33;100.00;98740.41;7396878;19;20077;-57
2022/12/26 02:16:11;;;;;;;0.10;0.10;;;;;;;7.86;100.00;98759.44;7394432;19;20033;-57
2022/12/26 02:18:38;;;;;;;0.10;0.10;;;;;;;7.30;100.00;98778.00;7394521;19;20011;-57
2022/12/26 02:21:16;;;;;;;0.20;0.20;;;;;;;7.10;100.00;98794.56;7393933;19;20059;-57
2022/12/26 02:24:06;;;;;;;0.10;0.10;;;;;;;7.13;100.00;98796.34;7397183;19;20086;-57
2022/12/26 02:26:38;;;;;;;0.10;0.10;;;;;;;7.62;100.00;98821.31;7396515;19;20376;-57
2022/12/26 02:29:13;;;;;;;0.10;0.10;;;;;;;7.15;100.00;98831.84;7393991;19;20015;-57
2022/12/26 02:31:51;;;;;;;0.10;0.10;;;;;;;7.08;100.00;98826.72;7398123;19;20014;-57
2022/12/26 02:34:23;;;;;;;0.17;0.17;;;;;;;8.10;100.00;98819.00;7394595;19;20032;-56
2022/12/26 02:37:20;;;;;;;0.10;0.00;;;;;;;8.67;100.00;98819.22;7393856;19;20041;-57
2022/12/26 02:40:07;;;;;;;0.10;0.10;;;;;;;7.61;100.00;98841.97;7394707;19;20017;-56
2022/12/26 02:43:02;;;;;;;0.10;0.10;;;;;;;7.65;100.00;98848.06;7395902;19;20017;-56
2022/12/26 02:49:02;;;;;;;0.10;0.10;;;;;;;7.62;100.00;98859.38;7393429;19;20462;-56
2022/12/26 03:15:03;;;;;;;0.10;0.10;;;;;;;7.22;100.00;98926.41;7403325;19;20031;-56
2022/12/26 03:18:05;;;;;;;0.20;0.20;;;;;;;6.90;100.00;98935.59;7400740;19;20094;-56
2022/12/26 03:20:34;;;;;;;0.10;0.10;;;;;;;6.82;100.00;98931.66;7398615;19;20018;-54
2022/12/26 03:23:11;;;;;;;0.10;0.10;;;;;;;6.79;100.00;98940.91;7403352;19;20027;-54
2022/12/26 03:28:41;;;;;;;0.10;0.10;;;;;;;6.28;100.00;98959.66;7402390;19;20015;-54
2022/12/26 03:31:11;;;;;;;0.10;0.10;;;;;;;6.21;100.00;98959.97;7400813;19;20011;-54
2022/12/26 03:37:00;;;;;;;0.10;0.10;;;;;;;6.62;100.00;98970.22;7399907;19;20010;-54
2022/12/26 04:44:25;;;;;;;0.10;0.10;;;;;;;5.44;100.00;99110.63;7397779;19;20497;-54
2022/12/26 04:46:53;;;;;;;0.10;0.10;;;;;;;5.32;100.00;99123.38;7398765;19;20021;-54
2022/12/26 04:52:07;;;;;;;0.10;0.10;;;;;;;5.77;100.00;99126.16;7397510;19;20010;-54
2022/12/26 04:54:33;;;;;;;0.10;0.10;;;;;;;5.82;100.00;99128.31;7398486;19;20010;-54
2022/12/26 04:56:59;;;;;;;0.10;0.00;;;;;;;7.38;100.00;99133.69;7400443;19;20019;-53
2022/12/26 04:59:26;;;;;;;0.10;0.10;;;;;;;7.51;100.00;99130.66;7401239;19;20010;-54
2022/12/26 05:10:19;;;;;;;0.10;0.10;;;;;;;6.64;100.00;99170.47;7399242;19;20007;-54
2022/12/26 05:12:46;;;;;;;0.10;0.05;;;;;;;6.20;100.00;99176.81;7400252;19;20074;-54
2022/12/26 05:15:12;;;;;;;0.10;0.10;;;;;;;6.31;100.00;99179.88;7397271;19;20014;-54
2022/12/26 05:29:06;;;;;;;0.47;0.47;;;;;;;4.79;100.00;99200.00;7399109;19;20021;-53
2022/12/26 05:31:32;;;;;;;1.33;1.10;;;;;;;5.28;100.00;99195.28;7395979;19;20347;-54
2022/12/26 05:34:05;;;;;;;0.10;0.10;;;;;;;5.26;100.00;99197.72;7400207;19;20027;-54
2022/12/26 05:36:40;;;;;;;0.10;0.10;;;;;;;5.15;100.00;99204.91;7398852;19;20073;-53
2022/12/26 05:39:08;;;;;;;1.45;0.50;;;;;;;5.08;100.00;99208.72;7396318;19;20397;-54
2022/12/26 05:41:35;;;;;;;0.10;0.10;;;;;;;5.09;100.00;99215.75;7396238;19;20379;-54
2022/12/26 05:44:01;;;;;;;0.20;0.20;;;;;;;5.04;100.00;99224.66;7394892;19;20010;-54
2022/12/26 05:46:28;;;;;;;0.38;0.38;;;;;;;5.07;100.00;99220.97;7395109;19;20018;-53
2022/12/26 05:48:54;;;;;;;0.15;0.15;;;;;;;4.86;100.00;99230.06;7394727;19;20047;-54
2022/12/26 05:51:20;;;;;;;0.10;0.10;;;;;;;3.75;100.00;99236.41;7396092;19;20007;-54
2022/12/26 05:53:47;;;;;;;0.10;0.10;;;;;;;4.69;100.00;99237.03;7399762;19;20007;-54
2022/12/26 05:56:15;;;;;;;0.10;0.10;;;;;;;4.76;100.00;99242.28;7395407;19;20070;-54
2022/12/26 05:58:41;;;;;;;0.10;0.10;;;;;;;4.74;100.00;99255.75;7398259;19;20010;-54
2022/12/26 06:01:09;;;;;;;0.10;0.10;;;;;;;4.75;100.00;99256.50;7395230;19;20020;-54
2022/12/26 06:03:36;;;;;;;0.10;0.10;;;;;;;4.91;100.00;99259.06;7399172;19;20011;-54
2022/12/26 06:06:04;;;;;;;0.20;0.20;;;;;;;5.18;100.00;99259.97;7393646;19;20062;-54
2022/12/26 06:08:30;;;;;;;0.10;0.10;;;;;;;4.79;100.00;99270.91;7395539;19;20010;-54
2022/12/26 06:10:56;;;;;;;0.10;0.10;;;;;;;4.65;100.00;99268.69;7395324;19;20021;-55
2022/12/26 06:13:23;;;;;;;0.20;0.20;;;;;;;4.66;100.00;99275.78;7397981;19;20014;-54
2022/12/26 06:15:49;;;;;;;0.10;0.10;;;;;;;4.40;100.00;99286.91;7394167;19;20033;-54
2022/12/26 06:18:15;;;;;;;0.10;0.10;;;;;;;4.15;100.00;99276.00;7397227;19;20026;-54
2022/12/26 06:20:42;;;;;;;0.17;0.17;;;;;;;4.22;100.00;99286.75;7394931;19;20007;-54
2022/12/26 06:23:08;;;;;;;0.10;0.10;;;;;;;4.13;100.00;99281.19;7398010;19;20015;-55
2022/12/26 06:25:34;;;;;;;17.52;0.90;;;;;;;4.06;100.00;99284.16;7396882;19;20497;-54
2022/12/26 06:28:00;;;;;;;0.10;0.10;;;;;;;4.01;100.00;99292.22;7395315;19;20010;-54
2022/12/26 06:30:26;;;;;;;0.17;0.17;;;;;;;3.91;100.00;99291.38;7390191;19;20697;-54
2022/12/26 06:32:52;;;;;;;0.15;0.15;;;;;;;3.60;100.00;99291.19;7394782;19;20014;-57
2022/12/26 06:35:18;;;;;;;0.10;0.10;;;;;;;4.28;100.00;99307.03;7392643;19;20021;-55
2022/12/26 06:37:45;;;;;;;5.82;0.75;;;;;;;4.20;100.00;99300.19;7393009;19;20014;-55
2022/12/26 06:40:11;;;;;;;0.38;0.38;;;;;;;4.29;100.00;99302.25;7392546;19;20014;-54
2022/12/26 06:42:37;;;;;;;1.25;0.40;;;;;;;4.16;100.00;99310.56;7392825;19;20015;-54
2022/12/26 06:45:03;;;;;;;0.10;0.10;;;;;;;4.06;100.00;99310.94;7391851;19;20029;-54
2022/12/26 06:47:30;;;;;;;0.10;0.00;;;;;;;3.94;100.00;99320.78;7389167;19;20011;-54
2022/12/26 06:49:56;;;;;;;0.10;0.10;;;;;;;3.97;100.00;99325.41;7390055;19;20018;-55
2022/12/26 06:52:22;;;;;;;0.10;0.10;;;;;;;4.15;100.00;99331.09;7393345;19;20011;-54
2022/12/26 06:54:48;;;;;;;0.10;0.10;;;;;;;4.73;100.00;99330.66;7392354;19;20007;-54
2022/12/26 06:57:14;;;;;;;0.10;0.10;;;;;;;4.80;100.00;99330.41;7392081;19;20115;-54
2022/12/26 06:59:40;;;;;;;0.10;0.10;;;;;;;5.23;100.00;99330.38;7391562;19;20011;-54
2022/12/26 07:02:09;;;;;;;0.10;0.10;;;;;;;5.28;100.00;99338.06;7393247;19;20018;-54
2022/12/26 07:04:35;;;;;;;0.10;0.10;;;;;;;5.00;100.00;99341.88;7392284;19;20033;-54
2022/12/26 07:07:02;;;;;;;0.10;0.10;;;;;;;4.43;100.00;99346.66;7392021;19;20015;-54
2022/12/26 07:09:28;;;;;;;0.10;0.00;;;;;;;5.38;100.00;99334.91;7388413;19;20006;-54
2022/12/26 07:11:55;;;;;;;0.10;0.10;;;;;;;5.30;100.00;99332.88;7394178;19;20010;-54
2022/12/26 07:14:21;;;;;;;0.10;0.10;;;;;;;5.27;100.00;99336.50;7390983;19;20014;-54
2022/12/26 07:16:47;;;;;;;0.10;0.10;;;;;;;5.07;100.00;99345.13;7391709;19;20007;-54
2022/12/26 07:19:14;;;;;;;0.38;0.38;;;;;;;5.08;100.00;99352.22;7391154;19;20015;-54
2022/12/26 07:21:41;;;;;;;0.85;0.30;;;;;;;5.60;100.00;99354.19;7390259;19;20015;-54
2022/12/26 07:24:16;;;;;;;0.13;0.13;;;;;;;5.64;100.00;99357.56;7390854;19;20019;-54
2022/12/26 07:26:44;;;;;;;0.35;0.30;;;;;;;5.47;100.00;99356.25;7395269;19;20589;-54
2022/12/26 07:29:11;;;;;;;0.10;0.10;;;;;;;5.74;100.00;99361.16;7245454;19;2881830;-54
2022/12/26 07:31:38;;;;;;;0.45;0.45;;;;;;;6.01;100.00;99370.31;7389724;19;20019;-54
2022/12/26 07:34:04;;;;;;;0.10;0.10;;;;;;;5.81;100.00;99378.19;7392343;19;20744;-53
2022/12/26 07:36:30;;;;;;;0.15;0.15;;;;;;;5.66;100.00;99388.25;7390041;19;20010;-53
2022/12/26 07:38:56;;;;;;;0.90;0.52;;;;;;;5.47;100.00;99388.63;7389846;19;20011;-54
2022/12/26 07:44:09;;;;;;;0.10;0.10;;;;;;;5.14;100.00;99380.75;7391714;19;20007;-54
2022/12/26 07:46:35;;;;;;;0.10;0.10;;;;;;;5.10;100.00;99379.34;7390868;19;20006;-54
2022/12/26 07:49:03;;;;;;;0.10;0.10;;;;;;;4.92;100.00;99384.72;7391457;19;20007;-54
2022/12/26 07:51:30;;;;;;;0.20;0.20;;;;;;;4.68;100.00;99392.66;7395210;19;20038;-54
2022/12/26 07:53:56;;;;;;;0.20;0.20;;;;;;;4.67;100.00;99404.16;7396955;19;20063;-54
2022/12/26 07:56:22;;;;;;;0.10;0.10;;;;;;;4.69;100.00;99412.75;7390983;19;20011;-55
2022/12/26 07:58:50;;;;;;;0.10;0.10;;;;;;;4.63;100.00;99412.56;7396382;19;20435;-54
2022/12/26 08:01:17;;;;;;;0.10;0.10;;;;;;;4.48;100.00;99417.75;7400780;19;20502;-55
2022/12/26 08:03:43;;;;;;;13.80;0.90;;;;;;;4.14;100.00;99414.97;7399373;19;20022;-54
2022/12/26 08:06:10;;;;;;;0.10;0.10;;;;;;;4.12;100.00;99433.13;7400565;19;20011;-54
2022/12/26 08:08:37;;;;;;;1.05;0.40;;;;;;;4.23;100.00;99442.63;7398441;19;20098;-54
2022/12/26 08:11:05;;;;;;;0.52;0.20;;;;;;;4.07;100.00;99444.75;7399335;19;20041;-54
2022/12/26 08:13:32;;;;;;;0.60;0.60;;;;;;;4.23;100.00;99453.66;7399380;19;20070;-54
2022/12/26 08:15:59;;;;;;;0.85;0.40;;;;;;;4.00;100.00;99467.00;7397767;19;20013;-54
2022/12/26 08:18:25;;;;;;;0.35;0.35;;;;;;;4.20;100.00;99468.28;7400443;19;20022;-54
2022/12/26 08:20:52;;;;;;;0.15;0.15;;;;;;;4.16;100.00;99464.88;7398776;19;20470;-53
2022/12/26 08:23:18;;;;;;;0.10;0.00;;;;;;;4.52;100.00;99468.06;7402640;19;20501;-54
2022/12/26 08:25:44;;;;;;;0.55;0.43;;;;;;;4.32;100.00;99467.53;7400684;19;20007;-55
2022/12/26 08:28:10;;;;;;;0.10;0.10;;;;;;;4.52;100.00;99483.84;7400471;19;20021;-54
2022/12/26 08:30:39;;;;;;;0.10;0.10;;;;;;;4.68;100.00;99482.94;7395524;19;20018;-54
2022/12/26 08:33:06;;;;;;;0.10;0.10;;;;;;;4.61;100.00;99473.66;7401042;19;20018;-54
2022/12/26 08:35:37;;;;;;;0.15;0.15;;;;;;;5.14;100.00;99473.81;7397597;19;20007;-54
2022/12/26 08:38:04;;;;;;;0.10;0.10;;;;;;;5.50;100.00;99482.38;7397887;19;20027;-54
2022/12/26 08:40:30;;;;;;;0.20;0.20;;;;;;;5.26;100.00;99481.28;7396035;19;20014;-54
2022/12/26 08:42:57;;;;;;;0.30;0.30;;;;;;;5.04;100.00;99483.25;7399371;19;20074;-54
2022/12/26 08:45:23;;;;;;;0.20;0.20;;;;;;;4.90;100.00;99483.72;7397573;19;20074;-54
2022/12/26 08:47:52;;;;;;;0.13;0.13;;;;;;;4.63;100.00;99494.50;7398065;19;20018;-54
2022/12/26 08:50:18;;;;;;;6.50;1.10;;;;;;;4.40;100.00;99490.91;7395814;19;20011;-54
2022/12/26 08:52:45;;;;;;;0.40;0.20;;;;;;;4.02;100.00;99500.38;7399565;19;20022;-54
2022/12/26 08:55:11;;;;;;;2.95;1.45;;;;;;;5.23;100.00;99501.50;7396897;19;20502;-54
2022/12/26 08:57:37;;;;;;;0.10;0.10;;;;;;;5.36;100.00;99504.97;7397704;19;20519;-54
2022/12/26 09:00:04;;;;;;;0.10;0.10;;;;;;;5.34;100.00;99512.94;7395470;19;20021;-55
2022/12/26 09:02:30;;;;;;;0.10;0.10;;;;;;;5.47;100.00;99513.66;7398319;19;20015;-54
2022/12/26 09:04:57;;;;;;;0.50;0.43;;;;;;;5.34;100.00;99512.94;7397265;19;20014;-54
2022/12/26 09:07:23;;;;;;;0.10;0.10;;;;;;;5.32;100.00;99524.44;7397010;19;20429;-54
2022/12/26 09:09:49;;;;;;;0.20;0.20;;;;;;;5.07;100.00;99532.03;7394266;19;20015;-54
2022/12/26 09:12:16;;;;;;;0.10;0.10;;;;;;;4.91;100.00;99541.25;7395501;19;20033;-54
2022/12/26 09:14:42;;;;;;;0.10;0.10;;;;;;;3.87;100.00;99552.38;7396375;19;20019;-54
2022/12/26 09:17:09;;;;;;;0.10;0.10;;;;;;;3.07;100.00;99551.38;7396220;19;20069;-54
2022/12/26 09:19:35;;;;;;;0.10;0.10;;;;;;;2.82;100.00;99545.75;7394667;19;20019;-54
2022/12/26 09:24:46;;;;;;;0.10;0.10;;;;;;;2.34;100.00;99551.22;7395719;19;20011;-54
2022/12/26 09:27:12;;;;;;;0.47;0.47;;;;;;;1.86;100.00;99557.41;7396133;19;20022;-54
2022/12/26 09:29:38;;;;;;;0.10;0.10;;;;;;;1.54;100.00;99552.53;7392507;19;20354;-59
2022/12/26 09:32:04;;;;;;;0.28;0.28;;;;;;;1.46;100.00;99559.38;7395855;19;20457;-54
2022/12/26 09:34:30;;;;;;;6.75;0.30;;;;;;;1.45;100.00;99566.03;7394086;19;21039;-54
2022/12/26 09:36:57;;;;;;;0.20;0.20;;;;;;;1.42;100.00;99561.41;7399892;19;20015;-54
2022/12/26 09:39:24;;;;;;;0.17;0.17;;;;;;;1.43;100.00;99562.94;7396392;19;20011;-54
2022/12/26 09:42:27;;;;;;;0.10;0.10;;;;;;;3.06;100.00;99569.13;7396452;19;20033;-54
2022/12/26 09:44:56;;;;;;;0.20;0.20;;;;;;;3.29;100.00;99567.38;7398792;19;20074;-54
2022/12/26 09:47:30;;;;;;;0.30;0.22;;;;;;;4.85;100.00;99578.13;7400620;19;20010;-54
2022/12/26 09:50:02;;;;;;;0.30;0.30;;;;;;;5.18;100.00;99587.63;7398417;19;20507;-54
2022/12/26 09:52:48;;;;;;;0.20;0.13;;;;;;;5.35;100.00;99592.56;7396719;19;20006;-55
2022/12/26 09:55:29;;;;;;;0.20;0.20;;;;;;;5.48;100.00;99594.53;7396481;19;20006;-54
2022/12/26 09:58:00;;;;;;;0.22;0.20;;;;;;;5.59;100.00;99601.19;7397832;19;20470;-54
2022/12/26 10:00:32;;;;;;;0.40;0.40;;;;;;;5.09;100.00;99604.13;7395959;19;20442;-54
2022/12/26 10:02:59;;;;;;;0.10;0.10;;;;;;;4.61;100.00;99600.50;7398282;19;20022;-54
2022/12/26 10:05:35;;;;;;;0.20;0.10;;;;;;;3.17;100.00;99612.06;7396857;19;20074;-54
2022/12/26 10:08:28;;;;;;;0.10;0.10;;;;;;;4.61;100.00;99611.53;7395377;19;20037;-56
2022/12/26 10:11:03;;;;;;;0.10;0.10;;;;;;;5.38;100.00;99602.72;7395287;19;20098;-54
2022/12/26 10:13:39;;;;;;;0.35;0.10;;;;;;;4.89;100.00;99609.13;7397859;19;20015;-53
2022/12/26 10:16:19;;;;;;;0.10;0.10;;;;;;;3.19;100.00;99617.91;7392785;19;20007;-53
2022/12/26 10:19:11;;;;;;;0.30;0.20;;;;;;;2.58;100.00;99623.34;7395150;19;20015;-53
2022/12/26 10:21:56;;;;;;;0.40;0.40;;;;;;;2.64;100.00;99627.88;7394310;19;20101;-89
2022/12/26 10:24:25;;;;;;;0.47;0.30;;;;;;;2.59;100.00;99631.16;7393179;19;20026;-92
2022/12/26 10:27:01;;;;;;;0.10;0.10;;;;;;;2.59;100.00;99644.88;7405580;19;20453;-92
2022/12/26 10:29:37;;;;;;;0.10;0.10;;;;;;;2.61;100.00;99634.25;7415363;19;20023;-92
2022/12/26 10:32:10;;;;;;;0.10;0.10;;;;;;;3.55;100.00;99644.09;7418688;19;20010;-93
2022/12/26 10:34:46;;;;;;;1.33;0.68;;;;;;;2.74;100.00;99642.59;7419711;19;20017;-93
2022/12/26 10:37:18;;;;;;;0.13;0.13;;;;;;;2.62;100.00;99646.78;7407079;19;20014;-92
2022/12/26 10:39:44;;;;;;;1.10;0.47;;;;;;;2.68;100.00;99636.84;7398789;19;20024;-92
2022/12/26 10:42:22;;;;;;;0.30;0.30;;;;;;;2.73;100.00;99641.06;7401030;19;20003;-91
2022/12/26 10:44:48;;;;;;;0.30;0.10;;;;;;;2.61;100.00;99653.47;7397896;19;20014;-91
2022/12/26 10:47:32;;;;;;;0.10;0.10;;;;;;;3.58;100.00;99646.00;7398080;19;20014;-91
2022/12/26 10:49:58;;;;;;;1.08;0.65;;;;;;;2.73;100.00;99647.31;7390858;19;20014;-92
2022/12/26 10:52:33;;;;;;;0.28;0.28;;;;;;;2.70;100.00;99645.44;7391085;19;20019;-91
2022/12/26 10:55:00;;;;;;;8.25;1.25;;;;;;;4.62;100.00;99634.38;7392668;19;20023;-91
2022/12/26 10:57:30;;;;;;;1.20;1.10;;;;;;;6.29;100.00;99636.59;7394774;19;20014;-91
2022/12/26 10:59:57;;;;;;;8.70;0.80;;;;;;;6.64;100.00;99645.56;7394544;19;20015;-93
2022/12/26 11:02:29;;;;;;;0.50;0.30;;;;;;;5.26;100.00;99646.94;7397883;19;20010;-91
2022/12/26 11:05:06;;;;;;;6.22;0.50;;;;;;;5.89;100.00;99646.78;7395795;19;20017;-91
2022/12/26 11:07:36;;;;;;;0.40;0.40;;;;;;;5.91;100.00;99650.59;7397374;19;20017;-90
2022/12/26 11:10:06;;;;;;;0.55;0.55;;;;;;;5.86;100.00;99653.97;7394067;19;20122;-91
2022/12/26 11:12:40;;;;;;;1.50;1.10;;;;;;;6.34;100.00;99655.38;7395849;19;20015;-90
2022/12/26 11:15:29;;;;;;;0.10;0.10;;;;;;;6.17;100.00;99664.31;7390620;19;20259;-90
2022/12/26 11:18:24;;;;;;;1.88;0.22;;;;;;;6.21;100.00;99662.97;7386698;19;20013;-90
2022/12/26 11:20:50;;;;;;;1.25;0.40;;;;;;;6.23;100.00;99659.75;7390837;19;20011;-90
2022/12/26 11:23:30;;;;;;;1.85;0.90;;;;;;;6.50;100.00;99674.53;7393308;19;20469;-91
2022/12/26 11:25:59;;;;;;;3.15;0.82;;;;;;;6.70;100.00;99665.88;7389555;19;20026;-90
2022/12/26 11:28:36;;;;;;;4.80;0.57;;;;;;;6.87;100.00;99665.19;7393086;19;20019;-91
2022/12/26 11:31:06;;;;;;;13.77;0.73;;;;;;;6.94;100.00;99669.66;7397565;19;20732;-91
2022/12/26 11:33:42;;;;;;;1.13;0.65;;;;;;;6.55;100.00;99664.88;7406504;19;20397;-90
2022/12/26 11:36:17;;;;;;;2.40;0.43;;;;;;;7.00;100.00;99667.84;7410126;19;20018;-93
2022/12/26 11:38:57;;;;;;;0.20;0.20;;;;;;;6.71;100.00;99670.19;7399858;19;20014;-90
2022/12/26 11:41:33;;;;;;;0.20;0.15;;;;;;;6.86;100.00;99674.69;7397038;19;20018;-90
2022/12/26 11:44:17;;;;;;;13.27;0.40;;;;;;;6.88;100.00;99674.25;7405005;19;20516;-91
2022/12/26 11:46:50;;;;;;;0.10;0.10;;;;;;;6.84;100.00;99676.41;7398658;19;20491;-90
2022/12/26 11:49:20;;;;;;;0.90;0.52;;;;;;;6.48;100.00;99676.97;7397028;19;20428;-91
2022/12/26 11:51:48;;;;;;;0.10;0.10;;;;;;;6.45;100.00;99677.13;7396080;19;20038;-91
2022/12/26 11:54:22;;;;;;;3.30;0.20;;;;;;;6.42;100.00;99684.31;7398678;19;20033;-90
2022/12/26 11:56:58;;;;;;;1.27;0.60;;;;;;;6.55;100.00;99681.47;7399389;19;20018;-91
2022/12/26 11:59:24;;;;;;;0.32;0.22;;;;;;;6.58;100.00;99684.09;7397597;19;20051;-91
2022/12/26 12:02:15;;;;;;;0.20;0.20;;;;;;;6.81;100.00;99672.53;7394999;19;20018;-91
2022/12/26 12:04:43;;;;;;;0.10;0.10;;;;;;;7.13;100.00;99659.41;7398937;19;20018;-91
2022/12/26 12:07:46;;;;;;;1.08;0.68;;;;;;;7.81;100.00;99663.72;7398705;19;20050;-91
2022/12/26 12:10:37;;;;;;;1.10;0.63;;;;;;;7.95;100.00;99663.88;7398366;19;20106;-91
2022/12/26 12:13:42;;;;;;;0.20;0.20;;;;;;;8.87;100.00;99660.50;7398587;19;20015;-91
2022/12/26 12:16:30;;;;;;;0.60;0.60;;;;;;;7.98;100.00;99656.63;7395492;19;20055;-90
2022/12/26 12:19:11;;;;;;;26.60;1.35;;;;;;;7.63;100.00;99676.31;7394824;19;20034;-91
2022/12/26 12:22:05;;;;;;;0.20;0.20;;;;;;;8.44;100.00;99672.03;7395417;19;20029;-91
2022/12/26 12:24:46;;;;;;;0.65;0.57;;;;;;;8.31;100.00;99674.22;7397988;19;20362;-91
2022/12/26 12:27:12;;;;;;;;;;;;;;;7.91;100.00;99673.56;7400310;19;20010;-94
2022/12/26 12:29:41;;;;;;;0.25;0.25;;;;;;;8.01;100.00;99666.81;7397662;19;19919;-86
2022/12/26 12:32:26;;;;;;;0.47;0.47;;;;;;;8.19;100.00;99669.56;7395348;19;20021;-91
2022/12/26 12:35:23;;;;;;;7.20;0.30;;;;;;;7.76;100.00;99669.88;7398952;19;20015;-94
2022/12/26 12:37:59;;;;;;;0.85;0.13;;;;;;;7.72;100.00;99661.72;7398266;19;20014;-91
2022/12/26 12:40:33;;;;;;;1.42;0.47;;;;;;;7.57;100.00;99653.22;7397669;19;20025;-96
2022/12/26 12:43:08;;;;;;;2.53;0.65;;;;;;;7.52;100.00;99658.59;7400465;19;20043;-95
2022/12/26 12:45:57;;;;;;;0.90;0.60;;;;;;;7.57;100.00;99656.00;7394546;19;20468;-94
2022/12/26 12:48:48;;;;;;;0.15;0.15;;;;;;;5.28;100.00;99670.09;7398762;19;20035;-95
2022/12/26 12:51:26;;;;;;;3.30;0.50;;;;;;;8.18;100.00;99659.72;7395912;19;20021;-94
2022/12/26 12:54:46;;;;;;;6.05;1.58;;;;;;;8.40;100.00;99660.34;7401760;19;20043;-95
2022/12/26 12:57:35;;;;;;;7.68;0.47;;;;;;;8.36;100.00;99656.91;7396195;19;20544;-96
2022/12/26 13:00:22;;;;;;;2.13;0.73;;;;;;;8.74;100.00;99657.16;7396494;19;20018;-95
2022/12/26 13:02:48;;;;;;;7.63;1.30;;;;;;;8.75;100.00;99655.91;7404819;19;20015;-96
2022/12/26 13:05:39;;;;;;;7.10;0.50;;;;;;;8.80;100.00;99662.81;7401953;19;20463;-96
2022/12/26 13:08:15;;;;;;;0.20;0.20;;;;;;;8.79;100.00;99662.06;7398457;19;20346;-94
2022/12/26 13:10:54;;;;;;;0.65;0.65;;;;;;;8.59;100.00;99661.81;7393811;19;20019;-95
2022/12/26 13:13:25;;;;;;;0.68;0.65;;;;;;;8.77;100.00;99655.44;7399222;19;20393;-96
2022/12/26 13:15:56;;;;;;;1.00;0.50;;;;;;;8.68;100.00;99659.03;7394255;19;20026;-96
2022/12/26 13:18:24;;;;;;;;;;;;;;;8.77;100.00;99650.66;7401536;19;20006;-95
2022/12/26 13:20:54;;;;;;;7.47;1.63;;;;;;;8.70;100.00;99653.78;7394767;19;19910;-95
2022/12/26 13:26:18;;;;;;;0.28;0.28;;;;;;;9.00;100.00;99643.63;7402195;19;20022;-92
2022/12/26 13:28:59;;;;;;;0.25;0.17;;;;;;;8.62;100.00;99647.00;7399200;19;20018;-96
2022/12/26 13:31:34;;;;;;;0.22;0.20;;;;;;;8.52;100.00;99651.03;7403488;19;20081;-96
2022/12/26 13:34:02;;;;;;;1.55;0.45;;;;;;;8.27;100.00;99656.97;7396603;19;20373;-95
2022/12/26 13:36:41;;;;;;;0.55;0.28;;;;;;;8.26;100.00;99655.41;7400435;19;20023;-96
2022/12/26 13:39:11;;;;;;;0.85;0.57;;;;;;;8.16;100.00;99656.63;7396842;19;20007;-94
2022/12/26 13:44:31;;;;;;;2.10;0.40;;;;;;;8.05;100.00;99661.88;7394789;19;20018;-94
2022/12/26 13:46:59;;;;;;;0.80;0.68;;;;;;;7.98;100.00;99656.63;7398963;19;20018;-96
2022/12/26 13:49:28;;;;;;;0.47;0.32;;;;;;;8.02;100.00;99660.00;7396689;19;20524;-96
2022/12/26 13:52:09;;;;;;;1.17;0.30;;;;;;;9.24;100.00;99654.78;7394242;19;20007;-95
2022/12/26 13:54:49;;;;;;;;;;;;;;;5.76;100.00;99660.59;7392548;19;20015;-95
2022/12/26 13:57:21;;;;;;;0.10;0.10;;;;;;;5.25;100.00;99671.00;7392382;19;20424;-96
2022/12/26 14:00:00;;;;;;;0.43;0.20;;;;;;;5.22;100.00;99671.09;7391165;19;20112;-95
2022/12/26 14:02:45;;;;;;;0.40;0.13;;;;;;;4.76;100.00;99666.28;7392290;19;20018;-96
2022/12/26 14:05:23;;;;;;;0.30;0.30;;;;;;;4.84;100.00;99662.06;7398027;19;20014;-96
2022/12/26 14:07:58;;;;;;;8.02;1.25;;;;;;;4.67;100.00;99657.88;7397877;19;20451;-93